Time;durP1;ratioP1;P1;durP2;ratioP2;P2;SDS_P1;SDS_P2;PMS_P1;PMS_P2;Temp;Humidity;BMP_temperature;BMP_pressure;BME280_temperature;BME280_humidity;BME280_pressure;Samples;Min_cycle;Max_cycle;Signal;HPM_P1;HPM_P2
2022/12/23 00:00:45;;;;;;;2.87;0.70;;;;;;;8.99;100.00;153669.25;5047420;28;20443;-85
2022/12/23 00:03:32;;;;;;;1.43;0.80;;;;;;;8.95;100.00;153657.59;5046494;28;20764;-85
2022/12/23 00:06:18;;;;;;;1.20;0.50;;;;;;;8.96;100.00;153660.19;5051784;28;20443;-85
2022/12/23 00:09:04;;;;;;;1.20;0.70;;;;;;;9.00;100.00;153670.56;5053060;28;20557;-85
2022/12/23 00:15:06;;;;;;;1.10;0.70;;;;;;;8.99;100.00;153667.97;5034638;28;20459;-85
2022/12/23 00:17:51;;;;;;;2.23;1.13;;;;;;;9.00;100.00;153671.81;5038372;28;20459;-85
2022/12/23 00:20:37;;;;;;;1.67;0.90;;;;;;;8.97;100.00;153664.09;5049322;28;20959;-85
2022/12/23 00:23:22;;;;;;;2.20;0.97;;;;;;;9.00;100.00;153670.56;5051139;28;21021;-85
2022/12/23 00:26:13;;;;;;;1.93;1.00;;;;;;;9.02;100.00;153675.72;5050367;28;20490;-85
2022/12/23 00:28:59;;;;;;;2.87;1.00;;;;;;;9.03;100.00;153678.28;5059499;28;21124;-85
2022/12/23 00:31:44;;;;;;;1.43;0.77;;;;;;;9.03;100.00;153678.28;5045631;28;20853;-85
2022/12/23 00:34:30;;;;;;;1.33;0.90;;;;;;;9.01;100.00;153674.44;5059508;28;20537;-85
2022/12/23 00:37:15;;;;;;;1.70;0.90;;;;;;;9.03;100.00;153679.59;5047085;28;20453;-85
2022/12/23 00:43:05;;;;;;;2.07;0.80;;;;;;;9.07;100.00;153688.66;5051850;28;20525;-85
2022/12/23 00:45:50;;;;;;;1.83;0.50;;;;;;;9.06;100.00;153686.06;5053941;28;20430;-85
2022/12/23 00:51:38;;;;;;;1.43;0.83;;;;;;;9.05;100.00;153683.50;5054591;28;20973;-85
2022/12/23 00:54:24;;;;;;;1.53;0.63;;;;;;;9.05;100.00;153684.75;5043266;28;20451;-85
2022/12/23 00:57:09;;;;;;;1.50;0.70;;;;;;;9.03;100.00;153679.59;5052884;28;20459;-85
2022/12/23 00:59:56;;;;;;;1.77;0.90;;;;;;;9.08;100.00;153692.50;5062015;28;20450;-85
2022/12/23 01:05:44;;;;;;;1.30;0.63;;;;;;;9.10;100.00;153696.41;5052880;28;20872;-85
2022/12/23 01:08:29;;;;;;;1.10;0.70;;;;;;;9.14;100.00;153706.75;5052838;28;20968;-85
2022/12/23 01:11:14;;;;;;;1.20;0.70;;;;;;;9.16;100.00;153711.91;5046966;28;20463;-85
2022/12/23 01:14:00;;;;;;;1.33;0.70;;;;;;;9.17;100.00;153715.81;5048875;28;20783;-85
2022/12/23 01:16:47;;;;;;;2.17;0.83;;;;;;;9.21;100.00;153724.88;5053615;28;20438;-85
2022/12/23 01:19:32;;;;;;;1.00;0.47;;;;;;;9.19;100.00;153720.97;5060021;28;20442;-85
2022/12/23 01:22:17;;;;;;;0.77;0.43;;;;;;;9.19;100.00;153720.97;5048092;28;20504;-85
2022/12/23 01:25:03;;;;;;;1.10;0.80;;;;;;;9.22;100.00;153727.44;5045799;28;20431;-85
2022/12/23 01:27:48;;;;;;;1.20;0.60;;;;;;;9.24;100.00;153732.59;5055151;28;20511;-85
2022/12/23 01:30:33;;;;;;;1.47;0.90;;;;;;;9.25;100.00;153735.22;5051706;28;20478;-85
2022/12/23 01:33:20;;;;;;;1.10;0.60;;;;;;;9.22;100.00;153727.44;5051899;28;20446;-85
2022/12/23 01:36:06;;;;;;;0.97;0.50;;;;;;;9.22;100.00;153726.13;5047439;28;20937;-85
2022/12/23 01:38:52;;;;;;;1.20;0.60;;;;;;;9.30;100.00;153748.13;5049651;28;20464;-85
2022/12/23 01:45:02;;;;;;;1.87;0.60;;;;;;;9.32;100.00;153753.31;5053321;28;20470;-85
2022/12/23 01:47:50;;;;;;;1.33;0.67;;;;;;;9.30;100.00;153748.13;5043073;28;20463;-85
2022/12/23 01:50:38;;;;;;;0.97;0.50;;;;;;;9.30;100.00;153748.13;5051033;28;20657;-85
2022/12/23 01:53:25;;;;;;;1.87;1.00;;;;;;;9.32;100.00;153752.03;5052965;28;20464;-85
2022/12/23 01:56:13;;;;;;;1.40;0.70;;;;;;;9.33;100.00;153755.91;5050518;28;20530;-85
2022/12/23 01:59:01;;;;;;;1.67;0.70;;;;;;;9.36;100.00;153763.66;5052743;28;20467;-85
2022/12/23 02:05:00;;;;;;;0.93;0.50;;;;;;;9.36;100.00;153763.66;5017862;28;20511;-85
2022/12/23 02:11:05;;;;;;;2.43;0.70;;;;;;;9.37;100.00;153766.22;5044422;28;21011;-85
2022/12/23 02:17:07;;;;;;;2.20;0.77;;;;;;;9.42;100.00;153779.22;5041808;28;20962;-85
2022/12/23 02:20:32;;;;;;;1.77;0.50;;;;;;;9.46;100.00;153789.53;5053544;28;20821;-85
2022/12/23 02:23:38;;;;;;;1.00;0.43;;;;;;;9.51;100.00;153801.16;5044312;28;20462;-85
2022/12/23 02:26:41;;;;;;;1.10;0.70;;;;;;;9.49;100.00;153797.31;5051592;28;20508;-85
2022/12/23 02:29:41;;;;;;;1.20;0.67;;;;;;;9.54;100.00;153810.25;5054493;28;20523;-85
2022/12/23 02:32:31;;;;;;;1.60;0.80;;;;;;;9.54;100.00;153810.25;5050413;28;20530;-85
2022/12/23 02:35:25;;;;;;;1.13;0.60;;;;;;;9.57;100.00;153816.69;5049584;28;20454;-85
2022/12/23 02:38:12;;;;;;;2.70;0.60;;;;;;;9.58;100.00;153820.56;5050106;28;20452;-85
2022/12/23 02:41:04;;;;;;;0.90;0.40;;;;;;;9.61;100.00;153827.06;5048097;28;20505;-85
2022/12/23 02:43:51;;;;;;;0.97;0.60;;;;;;;9.62;100.00;153830.94;5048282;28;20907;-85
2022/12/23 02:46:41;;;;;;;1.47;0.50;;;;;;;9.61;100.00;153827.06;5060286;28;20458;-85
2022/12/23 02:49:31;;;;;;;0.80;0.40;;;;;;;9.63;100.00;153833.53;5057158;28;20435;-85
2022/12/23 02:52:18;;;;;;;1.00;0.63;;;;;;;9.65;100.00;153838.72;5049718;28;20475;-85
2022/12/23 02:55:07;;;;;;;1.30;0.97;;;;;;;9.62;100.00;153829.63;5048509;28;20433;-85
2022/12/23 02:57:54;;;;;;;0.90;0.50;;;;;;;9.65;100.00;153837.41;5040387;28;20435;-85
2022/12/23 03:00:41;;;;;;;0.80;0.40;;;;;;;9.67;100.00;153842.56;5048211;28;20443;-85
2022/12/23 03:03:27;;;;;;;2.13;1.40;;;;;;;9.64;100.00;153836.09;5049011;28;20480;-85
2022/12/23 03:06:20;;;;;;;1.20;0.60;;;;;;;9.68;100.00;153846.47;5040963;28;20420;-86
2022/12/23 03:09:06;;;;;;;0.87;0.43;;;;;;;9.67;100.00;153843.88;5050974;28;20440;-85
2022/12/23 03:11:58;;;;;;;0.90;0.33;;;;;;;9.70;100.00;153851.63;5044844;28;20473;-85
2022/12/23 03:14:53;;;;;;;1.33;0.60;;;;;;;9.69;100.00;153847.72;5052418;28;20435;-85
2022/12/23 03:17:49;;;;;;;0.80;0.40;;;;;;;9.67;100.00;153843.88;5050255;28;20865;-85
2022/12/23 03:20:40;;;;;;;1.10;0.40;;;;;;;9.71;100.00;153852.94;5055125;28;20446;-86
2022/12/23 03:23:29;;;;;;;0.80;0.40;;;;;;;9.72;100.00;153855.50;5046883;28;20918;-85
2022/12/23 03:26:17;;;;;;;1.27;0.53;;;;;;;9.73;100.00;153859.41;5051523;28;20508;-85
2022/12/23 03:29:07;;;;;;;1.10;0.40;;;;;;;9.73;100.00;153858.09;5049150;28;20484;-85
2022/12/23 03:31:54;;;;;;;0.80;0.37;;;;;;;9.75;100.00;153863.28;5033078;28;20805;-85
2022/12/23 03:34:41;;;;;;;1.00;0.50;;;;;;;9.76;100.00;153867.19;5046279;28;20432;-85
2022/12/23 03:37:28;;;;;;;0.80;0.40;;;;;;;9.75;100.00;153864.56;5049393;28;20457;-85
2022/12/23 03:40:18;;;;;;;0.70;0.40;;;;;;;9.77;100.00;153869.75;5044916;28;20460;-85
2022/12/23 03:43:05;;;;;;;1.00;0.50;;;;;;;9.77;100.00;153869.75;5032083;28;20581;-85
2022/12/23 03:45:54;;;;;;;0.70;0.40;;;;;;;9.81;100.00;153878.81;5041881;28;20537;-85
2022/12/23 03:48:42;;;;;;;0.80;0.30;;;;;;;9.82;100.00;153882.69;5048603;28;20481;-85
2022/12/23 03:51:31;;;;;;;1.03;0.60;;;;;;;9.84;100.00;153885.28;5031681;28;20468;-85
2022/12/23 03:54:19;;;;;;;0.90;0.40;;;;;;;9.83;100.00;153883.97;5043337;28;20451;-85
2022/12/23 03:57:07;;;;;;;0.93;0.50;;;;;;;9.88;100.00;153895.59;5037944;28;20545;-85
2022/12/23 03:59:53;;;;;;;1.00;0.30;;;;;;;9.86;100.00;153891.75;5050784;28;20526;-85
2022/12/23 04:02:42;;;;;;;0.80;0.43;;;;;;;9.85;100.00;153887.88;5050773;28;20450;-85
2022/12/23 04:05:29;;;;;;;1.37;0.37;;;;;;;9.86;100.00;153891.75;5048916;28;20435;-85
2022/12/23 04:08:16;;;;;;;0.93;0.40;;;;;;;9.90;100.00;153902.06;5071534;28;20577;-85
2022/12/23 04:11:02;;;;;;;0.90;0.50;;;;;;;9.92;100.00;153906.00;5072906;28;20395;-85
2022/12/23 04:13:49;;;;;;;0.80;0.30;;;;;;;9.89;100.00;153898.22;5054567;28;20434;-85
2022/12/23 04:16:34;;;;;;;1.47;0.30;;;;;;;9.86;100.00;153891.75;5048354;28;20447;-85
2022/12/23 04:19:20;;;;;;;0.90;0.50;;;;;;;9.87;100.00;153893.06;5051083;28;20436;-85
2022/12/23 04:22:05;;;;;;;0.80;0.40;;;;;;;9.87;100.00;153893.06;5048174;28;20449;-85
2022/12/23 04:24:50;;;;;;;0.90;0.43;;;;;;;9.89;100.00;153899.53;5049858;28;20801;-85
2022/12/23 04:27:36;;;;;;;1.10;0.50;;;;;;;9.88;100.00;153895.59;5055719;28;20464;-85
2022/12/23 04:30:22;;;;;;;0.90;0.50;;;;;;;9.89;100.00;153898.22;5053676;28;20459;-85
2022/12/23 04:33:10;;;;;;;0.90;0.30;;;;;;;9.89;100.00;153899.53;5052379;28;20482;-85
2022/12/23 04:35:55;;;;;;;1.23;0.50;;;;;;;9.87;100.00;153893.06;5051604;28;20443;-85
2022/12/23 04:38:40;;;;;;;1.30;0.80;;;;;;;9.88;100.00;153895.59;5067257;28;20455;-85
2022/12/23 04:41:26;;;;;;;0.80;0.40;;;;;;;9.87;100.00;153894.34;5051873;28;20469;-85
2022/12/23 04:44:11;;;;;;;0.77;0.40;;;;;;;9.88;100.00;153896.91;5046370;28;20431;-85
2022/12/23 04:46:58;;;;;;;1.00;0.50;;;;;;;9.86;100.00;153890.44;5053393;28;21154;-85
2022/12/23 04:49:43;;;;;;;1.00;0.60;;;;;;;9.88;100.00;153895.59;5053229;28;20445;-85
2022/12/23 04:52:29;;;;;;;0.90;0.50;;;;;;;9.90;100.00;153900.81;5054379;28;20458;-85
2022/12/23 04:55:14;;;;;;;0.80;0.43;;;;;;;9.90;100.00;153900.81;5053333;28;20754;-85
2022/12/23 04:58:00;;;;;;;1.10;0.60;;;;;;;9.91;100.00;153903.38;5063572;28;20446;-85
2022/12/23 05:00:45;;;;;;;1.53;0.50;;;;;;;9.91;100.00;153904.69;5051163;28;20563;-85
2022/12/23 05:03:32;;;;;;;1.53;0.50;;;;;;;9.92;100.00;153906.00;5054327;28;20440;-85
2022/12/23 05:06:17;;;;;;;0.90;0.50;;;;;;;9.91;100.00;153903.38;5053787;28;20888;-85
2022/12/23 05:09:02;;;;;;;0.93;0.60;;;;;;;9.91;100.00;153904.69;5052140;28;20485;-85
2022/12/23 05:11:48;;;;;;;1.47;0.40;;;;;;;9.92;100.00;153907.28;5048439;28;20471;-85
2022/12/23 05:14:33;;;;;;;1.27;0.50;;;;;;;9.96;100.00;153917.63;5051684;28;20521;-85
2022/12/23 05:17:18;;;;;;;0.90;0.50;;;;;;;9.96;100.00;153916.31;5046845;28;20448;-85
2022/12/23 05:20:07;;;;;;;1.00;0.50;;;;;;;9.97;100.00;153918.91;5050027;28;20448;-85
2022/12/23 05:22:52;;;;;;;1.00;0.50;;;;;;;9.96;100.00;153916.31;5046383;28;20448;-85
2022/12/23 05:25:38;;;;;;;1.10;0.60;;;;;;;9.95;100.00;153913.75;5051249;28;20444;-85
2022/12/23 05:28:24;;;;;;;0.93;0.50;;;;;;;9.94;100.00;153912.47;5051883;28;20462;-85
2022/12/23 05:31:10;;;;;;;1.30;0.70;;;;;;;9.95;100.00;153913.75;5039477;28;20439;-85
2022/12/23 05:33:55;;;;;;;1.27;0.60;;;;;;;9.93;100.00;153908.59;5040706;28;20401;-85
2022/12/23 05:36:42;;;;;;;1.30;0.60;;;;;;;9.94;100.00;153911.16;5055949;28;20537;-85
2022/12/23 05:39:27;;;;;;;1.03;0.67;;;;;;;9.92;100.00;153907.28;5066329;28;20989;-85
2022/12/23 05:42:18;;;;;;;0.90;0.53;;;;;;;9.93;100.00;153908.59;5045758;28;20567;-85
2022/12/23 05:45:03;;;;;;;1.00;0.60;;;;;;;9.95;100.00;153913.75;5050571;28;20444;-85
2022/12/23 05:47:49;;;;;;;1.43;0.80;;;;;;;9.95;100.00;153915.06;5054584;28;20446;-85
2022/12/23 05:50:34;;;;;;;1.50;0.83;;;;;;;9.96;100.00;153916.31;5053883;28;20485;-85
2022/12/23 05:53:23;;;;;;;1.00;0.73;;;;;;;9.94;100.00;153911.16;5051898;28;20812;-85
2022/12/23 05:56:08;;;;;;;1.23;0.67;;;;;;;9.98;100.00;153921.53;5056001;28;20943;-85
2022/12/23 05:58:54;;;;;;;1.20;0.80;;;;;;;10.00;100.00;153926.69;5063523;28;20849;-85
2022/12/23 06:01:39;;;;;;;1.10;0.60;;;;;;;10.01;100.00;153929.25;5059584;28;20590;-85
2022/12/23 06:04:24;;;;;;;0.87;0.43;;;;;;;10.00;100.00;153926.69;5050203;28;20602;-85
2022/12/23 06:07:10;;;;;;;1.00;0.60;;;;;;;10.00;100.00;153926.69;5052874;28;20548;-85
2022/12/23 06:09:56;;;;;;;0.93;0.50;;;;;;;10.00;100.00;153926.69;5049978;28;20443;-85
2022/12/23 06:12:42;;;;;;;1.30;0.70;;;;;;;10.02;100.00;153931.88;5042859;28;20472;-85
2022/12/23 06:15:27;;;;;;;1.10;0.60;;;;;;;10.01;100.00;153930.56;5051415;28;20423;-85
2022/12/23 06:18:12;;;;;;;1.20;0.80;;;;;;;10.02;100.00;153931.88;5049539;28;20515;-85
2022/12/23 06:20:58;;;;;;;1.00;0.57;;;;;;;10.02;100.00;153931.88;5050649;28;20439;-85
2022/12/23 06:23:43;;;;;;;2.70;1.30;;;;;;;10.05;100.00;153939.63;5052307;28;20426;-85
2022/12/23 06:26:30;;;;;;;2.43;0.77;;;;;;;10.04;100.00;153937.03;5050342;28;20456;-85
2022/12/23 06:29:15;;;;;;;1.10;0.70;;;;;;;10.04;100.00;153938.34;5054213;28;20479;-85
2022/12/23 06:32:01;;;;;;;1.30;0.90;;;;;;;10.04;100.00;153937.03;5038742;28;20514;-85
2022/12/23 06:34:48;;;;;;;1.13;0.80;;;;;;;10.05;100.00;153940.94;5033586;28;20405;-85
2022/12/23 06:37:33;;;;;;;1.20;0.70;;;;;;;10.07;100.00;153946.09;5042437;28;20455;-85
2022/12/23 06:40:18;;;;;;;1.90;0.73;;;;;;;10.05;100.00;153939.63;5048775;28;20457;-85
2022/12/23 06:43:05;;;;;;;0.90;0.60;;;;;;;10.05;100.00;153939.63;5052984;28;20419;-85
2022/12/23 06:45:50;;;;;;;0.97;0.67;;;;;;;10.05;100.00;153940.94;5048492;28;20456;-85
2022/12/23 06:48:36;;;;;;;1.23;0.80;;;;;;;10.08;100.00;153947.41;5053136;28;20563;-85
2022/12/23 06:51:21;;;;;;;2.30;1.47;;;;;;;10.18;100.00;153973.34;5048314;28;21007;-85
2022/12/23 06:54:07;;;;;;;2.90;2.53;;;;;;;10.18;100.00;153973.34;5052878;28;20470;-85
2022/12/23 06:56:52;;;;;;;4.60;3.47;;;;;;;10.34;100.00;154014.75;5046073;28;20466;-85
2022/12/23 06:59:39;;;;;;;5.27;3.93;;;;;;;10.23;100.00;153986.28;5042902;28;20427;-85
2022/12/23 07:02:24;;;;;;;6.00;4.67;;;;;;;10.21;100.00;153982.41;5052677;28;20514;-85
2022/12/23 07:05:09;;;;;;;6.90;4.90;;;;;;;10.19;100.00;153977.19;5039871;28;20443;-85
2022/12/23 07:07:55;;;;;;;4.00;3.57;;;;;;;10.17;100.00;153970.72;5046592;28;20440;-85
2022/12/23 07:10:40;;;;;;;4.80;4.30;;;;;;;10.13;100.00;153961.69;5047075;28;20443;-85
2022/12/23 07:13:26;;;;;;;4.37;3.60;;;;;;;10.12;100.00;153957.72;5052256;28;20525;-85
2022/12/23 07:16:13;;;;;;;4.43;4.00;;;;;;;10.13;100.00;153960.41;5047603;28;20439;-85
2022/12/23 07:18:58;;;;;;;4.10;3.30;;;;;;;10.11;100.00;153956.44;5049974;28;20443;-85
2022/12/23 07:21:43;;;;;;;5.00;3.43;;;;;;;10.09;100.00;153949.97;5049805;28;20459;-85
2022/12/23 07:24:28;;;;;;;4.03;3.63;;;;;;;10.07;100.00;153946.09;5057853;28;20438;-85
2022/12/23 07:27:14;;;;;;;3.50;2.80;;;;;;;10.03;100.00;153935.78;5048345;28;20435;-85
2022/12/23 07:29:59;;;;;;;3.33;2.63;;;;;;;10.00;100.00;153926.69;5052716;28;20486;-85
2022/12/23 07:32:48;;;;;;;3.50;3.00;;;;;;;9.98;100.00;153921.53;5034023;28;20483;-85
2022/12/23 07:35:34;;;;;;;3.00;2.43;;;;;;;9.98;100.00;153922.78;5039811;28;20960;-85
2022/12/23 07:38:19;;;;;;;3.97;3.03;;;;;;;9.99;100.00;153925.38;5042947;28;20917;-85
2022/12/23 07:41:05;;;;;;;3.83;3.03;;;;;;;10.02;100.00;153931.88;5045767;28;20574;-85
2022/12/23 07:43:50;;;;;;;2.97;2.53;;;;;;;10.02;100.00;153933.16;5045522;28;20525;-85
2022/12/23 07:46:35;;;;;;;3.63;2.10;;;;;;;10.04;100.00;153937.03;5045203;28;20451;-85
2022/12/23 07:49:22;;;;;;;5.10;2.13;;;;;;;10.06;100.00;153942.25;5049834;28;20972;-85
2022/12/23 07:52:07;;;;;;;3.53;2.00;;;;;;;10.08;100.00;153948.72;5042641;28;20459;-85
2022/12/23 07:54:53;;;;;;;3.70;2.07;;;;;;;10.08;100.00;153948.72;5045907;28;20425;-85
2022/12/23 07:57:39;;;;;;;3.13;2.50;;;;;;;10.11;100.00;153955.19;5045848;28;20919;-84
2022/12/23 08:00:25;;;;;;;4.00;3.40;;;;;;;10.11;100.00;153955.19;5048654;28;20444;-85
2022/12/23 08:03:11;;;;;;;11.90;10.47;;;;;;;10.12;100.00;153957.72;5043986;28;20455;-85
2022/12/23 08:06:03;;;;;;;12.00;9.63;;;;;;;10.11;100.00;153956.44;5051309;28;20507;-84
2022/12/23 08:08:48;;;;;;;12.07;10.50;;;;;;;10.12;100.00;153957.72;5047765;28;20451;-85
2022/12/23 08:11:34;;;;;;;9.70;8.60;;;;;;;10.12;100.00;153957.72;5059867;28;20462;-85
2022/12/23 08:14:19;;;;;;;5.23;4.73;;;;;;;10.11;100.00;153955.19;5071092;28;20576;-85
2022/12/23 08:17:04;;;;;;;4.10;3.33;;;;;;;10.11;100.00;153955.19;5032276;28;20439;-85
2022/12/23 08:19:50;;;;;;;4.50;3.73;;;;;;;10.11;100.00;153955.19;5047231;28;20440;-85
2022/12/23 08:22:37;;;;;;;3.10;2.77;;;;;;;10.11;100.00;153956.44;5037139;28;20462;-85
2022/12/23 08:25:25;;;;;;;5.10;3.50;;;;;;;10.12;100.00;153959.09;5041801;28;20424;-85
2022/12/23 08:31:15;;;;;;;7.57;5.10;;;;;;;10.12;100.00;153959.09;5050924;28;20808;-85
2022/12/23 08:34:02;;;;;;;10.40;7.00;;;;;;;10.13;100.00;153960.41;5043563;28;20463;-85
2022/12/23 08:36:47;;;;;;;6.23;5.07;;;;;;;10.14;100.00;153963.00;5048902;28;20450;-85
2022/12/23 08:39:34;;;;;;;5.40;4.30;;;;;;;10.13;100.00;153961.69;5040004;28;20569;-85
2022/12/23 08:42:19;;;;;;;16.60;9.77;;;;;;;10.16;100.00;153968.16;5041525;28;20478;-85
2022/12/23 08:45:05;;;;;;;20.90;12.90;;;;;;;10.18;100.00;153973.34;5048057;28;20463;-85
2022/12/23 08:47:50;;;;;;;22.07;14.80;;;;;;;10.19;100.00;153975.94;5046804;28;20963;-85
2022/12/23 08:50:39;;;;;;;16.87;10.90;;;;;;;10.21;100.00;153981.09;5051200;28;20440;-84
2022/12/23 08:53:24;;;;;;;15.97;10.63;;;;;;;10.22;100.00;153983.66;5050590;28;20472;-85
2022/12/23 08:56:16;;;;;;;9.30;7.20;;;;;;;10.20;100.00;153979.81;5040321;28;20443;-85
2022/12/23 08:59:03;;;;;;;6.80;5.20;;;;;;;10.22;100.00;153983.66;5042909;28;20431;-86
2022/12/23 09:01:48;;;;;;;7.10;5.80;;;;;;;10.23;100.00;153986.28;5054533;28;20522;-85
2022/12/23 09:04:33;;;;;;;10.23;6.77;;;;;;;10.24;100.00;153988.88;5049497;28;20466;-85
2022/12/23 09:07:19;;;;;;;9.13;6.10;;;;;;;10.27;100.00;153996.66;5053126;28;20447;-85
2022/12/23 09:10:06;;;;;;;9.47;6.60;;;;;;;10.28;100.00;154000.50;5055310;28;20795;-85
2022/12/23 09:12:53;;;;;;;14.47;9.60;;;;;;;10.31;100.00;154007.00;5057646;28;20450;-85
2022/12/23 09:15:41;;;;;;;7.20;5.63;;;;;;;10.31;100.00;154007.00;5049266;28;20460;-85
2022/12/23 09:18:26;;;;;;;4.20;3.80;;;;;;;10.32;100.00;154009.59;5053825;28;20495;-85
2022/12/23 09:21:13;;;;;;;4.20;3.50;;;;;;;10.34;100.00;154016.06;5044830;28;21044;-85
2022/12/23 09:23:59;;;;;;;5.20;4.70;;;;;;;10.36;100.00;154021.22;5047498;28;20443;-85
2022/12/23 09:26:44;;;;;;;5.30;4.80;;;;;;;10.38;100.00;154025.09;5041994;28;20984;-85
2022/12/23 09:29:30;;;;;;;5.63;5.03;;;;;;;10.40;100.00;154030.31;5065805;28;20482;-85
2022/12/23 09:32:16;;;;;;;7.63;6.10;;;;;;;10.41;100.00;154032.88;5050494;28;20451;-85
2022/12/23 09:35:01;;;;;;;9.10;5.87;;;;;;;10.46;100.00;154044.56;5051600;28;20539;-85
2022/12/23 09:37:47;;;;;;;5.87;5.00;;;;;;;10.46;100.00;154045.81;5056987;28;20458;-85
2022/12/23 09:40:33;;;;;;;5.23;4.30;;;;;;;10.49;100.00;154053.59;5049346;28;20443;-85
2022/12/23 09:43:27;;;;;;;5.40;4.30;;;;;;;10.49;100.00;154053.59;5037596;28;20440;-85
2022/12/23 09:46:17;;;;;;;9.43;6.77;;;;;;;10.51;100.00;154058.75;5047988;28;20845;-85
2022/12/23 09:49:04;;;;;;;6.87;5.27;;;;;;;10.52;100.00;154061.34;5048095;28;20551;-85
2022/12/23 09:51:52;;;;;;;4.70;3.40;;;;;;;10.58;100.00;154076.91;5044974;28;20452;-85
2022/12/23 09:54:41;;;;;;;3.00;2.70;;;;;;;10.58;100.00;154075.59;5053268;28;20642;-85
2022/12/23 09:57:34;;;;;;;4.10;3.00;;;;;;;10.60;100.00;154080.78;5057698;28;20462;-85
2022/12/23 10:00:22;;;;;;;6.87;3.77;;;;;;;10.58;100.00;154075.59;5051670;28;20526;-85
2022/12/23 10:03:18;;;;;;;3.53;2.90;;;;;;;10.59;100.00;154079.47;5050948;28;20450;-85
2022/12/23 10:06:08;;;;;;;3.60;2.50;;;;;;;10.61;100.00;154084.69;5061579;28;20419;-85
2022/12/23 10:08:57;;;;;;;3.70;2.80;;;;;;;10.63;100.00;154089.84;5040567;28;20574;-85
2022/12/23 10:11:44;;;;;;;3.00;2.57;;;;;;;10.66;100.00;154097.63;5051041;28;20443;-85
2022/12/23 10:14:34;;;;;;;2.20;2.00;;;;;;;10.66;100.00;154097.63;5052289;28;20467;-85
2022/12/23 10:17:26;;;;;;;2.50;2.00;;;;;;;10.68;100.00;154102.78;5046559;28;20550;-85
2022/12/23 10:20:17;;;;;;;1.93;1.53;;;;;;;10.67;100.00;154100.19;5051035;28;20436;-86
2022/12/23 10:23:02;;;;;;;1.73;1.30;;;;;;;10.69;100.00;154104.09;5050473;28;20790;-85
2022/12/23 10:25:50;;;;;;;1.30;0.73;;;;;;;10.73;100.00;154114.44;5036619;28;20523;-84
2022/12/23 10:28:36;;;;;;;1.20;0.90;;;;;;;10.72;100.00;154113.13;5052623;28;20420;-84
2022/12/23 10:31:29;;;;;;;1.20;0.80;;;;;;;10.73;100.00;154115.75;5053170;28;20427;-85
2022/12/23 10:34:19;;;;;;;2.30;1.50;;;;;;;10.75;100.00;154120.91;5049470;28;20473;-84
2022/12/23 10:37:09;;;;;;;2.60;1.97;;;;;;;10.77;100.00;154124.81;5052868;28;20583;-84
2022/12/23 10:40:05;;;;;;;2.40;1.90;;;;;;;10.79;100.00;154131.28;5052271;28;20992;-85
2022/12/23 10:42:58;;;;;;;2.57;1.30;;;;;;;10.82;100.00;154139.06;5034821;28;20444;-85
2022/12/23 10:45:48;;;;;;;1.93;1.60;;;;;;;10.84;100.00;154142.94;5048452;28;20444;-84
2022/12/23 10:48:46;;;;;;;3.03;2.07;;;;;;;10.87;100.00;154152.03;5051776;28;20432;-84
2022/12/23 10:51:34;;;;;;;2.80;2.00;;;;;;;10.90;100.00;154158.50;5051663;28;20455;-84
2022/12/23 10:54:23;;;;;;;5.37;4.10;;;;;;;10.96;100.00;154174.06;5050412;28;20540;-84
2022/12/23 10:57:09;;;;;;;7.80;5.37;;;;;;;10.96;100.00;154175.31;5050757;28;20943;-85
2022/12/23 10:59:55;;;;;;;7.13;5.60;;;;;;;10.98;100.00;154179.22;5042184;28;20490;-84
2022/12/23 11:02:47;;;;;;;3.30;2.37;;;;;;;10.96;100.00;154175.31;5050278;28;20456;-84
2022/12/23 11:05:33;;;;;;;1.90;1.37;;;;;;;11.00;100.00;154184.38;5050535;28;20456;-84
2022/12/23 11:08:20;;;;;;;2.20;1.90;;;;;;;11.00;100.00;154185.69;5048870;28;20462;-84
2022/12/23 11:11:07;;;;;;;3.07;1.80;;;;;;;11.05;100.00;154196.03;5047896;28;20443;-84
2022/12/23 11:13:52;;;;;;;3.00;2.03;;;;;;;11.06;100.00;154199.94;5044214;28;20455;-83
2022/12/23 11:16:45;;;;;;;5.47;4.27;;;;;;;11.00;100.00;154185.69;5038376;28;20443;-83
2022/12/23 11:19:31;;;;;;;5.03;3.80;;;;;;;11.04;100.00;154193.47;5058680;28;20451;-85
2022/12/23 11:22:23;;;;;;;8.20;6.13;;;;;;;11.04;100.00;154193.47;5063992;28;20574;-84
2022/12/23 11:25:26;;;;;;;13.30;8.93;;;;;;;11.08;100.00;154205.13;5052016;28;20478;-84
2022/12/23 11:28:16;;;;;;;10.33;8.23;;;;;;;11.11;100.00;154211.59;5064731;28;20549;-83
2022/12/23 11:31:07;;;;;;;3.70;3.20;;;;;;;11.18;100.00;154229.72;5048053;28;20791;-84
2022/12/23 11:33:57;;;;;;;3.43;2.60;;;;;;;11.22;100.00;154240.09;5032780;28;20452;-84
2022/12/23 11:36:42;;;;;;;2.80;2.40;;;;;;;11.24;100.00;154245.25;5047714;28;20841;-84
2022/12/23 11:39:29;;;;;;;2.60;1.90;;;;;;;11.25;100.00;154247.88;5051593;28;20453;-85
2022/12/23 11:42:17;;;;;;;3.60;2.87;;;;;;;11.27;100.00;154254.34;5051524;28;20452;-84
2022/12/23 11:45:07;;;;;;;3.10;2.73;;;;;;;11.30;100.00;154260.81;5047646;28;20491;-84
2022/12/23 11:47:52;;;;;;;2.50;1.93;;;;;;;11.30;100.00;154260.81;5048326;28;21006;-84
2022/12/23 11:50:39;;;;;;;2.47;1.80;;;;;;;11.33;100.00;154268.59;5051954;28;20939;-83
2022/12/23 11:53:26;;;;;;;6.10;4.90;;;;;;;11.35;100.00;154273.78;5052330;28;20434;-83
2022/12/23 11:56:13;;;;;;;8.70;4.50;;;;;;;11.38;100.00;154281.56;5050413;28;20447;-83
2022/12/23 11:59:03;;;;;;;6.70;5.40;;;;;;;11.41;100.00;154289.34;5049385;28;21049;-83
2022/12/23 12:01:49;;;;;;;6.63;4.10;;;;;;;11.40;100.00;154288.03;5048454;28;20461;-83
2022/12/23 12:04:35;;;;;;;16.70;7.23;;;;;;;11.41;100.00;154290.59;5055862;28;20440;-84
2022/12/23 12:07:21;;;;;;;6.40;4.63;;;;;;;11.45;100.00;154299.69;5046018;28;20492;-84
2022/12/23 12:10:11;;;;;;;7.00;4.43;;;;;;;11.46;100.00;154302.28;5042760;28;20440;-84
2022/12/23 12:12:59;;;;;;;7.47;4.30;;;;;;;11.44;100.00;154297.06;5047575;28;20459;-84
2022/12/23 12:15:51;;;;;;;5.53;4.13;;;;;;;11.44;100.00;154297.06;5043573;28;20598;-84
2022/12/23 12:18:39;;;;;;;7.57;5.70;;;;;;;11.45;100.00;154299.69;5049880;28;20432;-84
2022/12/23 12:21:29;;;;;;;5.97;4.50;;;;;;;11.44;100.00;154297.06;5048613;28;20801;-83
2022/12/23 12:24:17;;;;;;;4.73;4.00;;;;;;;11.44;100.00;154297.06;5039848;28;20443;-84
2022/12/23 12:27:10;;;;;;;5.27;4.23;;;;;;;11.46;100.00;154303.53;5046645;28;20507;-83
2022/12/23 12:30:01;;;;;;;10.53;5.43;;;;;;;11.47;100.00;154304.84;5073412;28;20491;-83
2022/12/23 12:32:52;;;;;;;3.77;2.90;;;;;;;11.47;100.00;154304.84;5043760;28;20918;-82
2022/12/23 12:35:43;;;;;;;4.67;3.57;;;;;;;11.46;100.00;154302.28;5055166;28;20463;-83
2022/12/23 12:38:31;;;;;;;7.70;4.70;;;;;;;11.42;100.00;154293.19;5048469;28;20804;-85
2022/12/23 12:41:26;;;;;;;6.60;4.90;;;;;;;11.44;100.00;154298.38;5049517;28;20451;-84
2022/12/23 12:44:25;;;;;;;9.23;6.10;;;;;;;11.44;100.00;154297.06;5053855;28;20456;-84
2022/12/23 12:47:13;;;;;;;7.60;5.00;;;;;;;11.44;100.00;154298.38;5053114;28;20578;-83
2022/12/23 12:50:02;;;;;;;8.03;5.40;;;;;;;11.45;100.00;154299.69;5040930;28;20931;-84
2022/12/23 12:52:50;;;;;;;6.10;4.10;;;;;;;11.47;100.00;154306.16;5048722;28;20444;-83
2022/12/23 12:55:41;;;;;;;4.93;2.93;;;;;;;11.47;100.00;154304.84;5054594;28;20460;-83
2022/12/23 12:58:26;;;;;;;3.40;2.77;;;;;;;11.47;100.00;154304.84;5039689;28;20451;-83
2022/12/23 13:01:19;;;;;;;3.57;3.23;;;;;;;11.46;100.00;154302.28;5049068;28;20470;-83
2022/12/23 13:04:37;;;;;;;3.70;2.30;;;;;;;11.47;100.00;154306.16;5047413;28;20795;-83
2022/12/23 13:07:30;;;;;;;2.57;2.00;;;;;;;11.48;100.00;154308.75;5049448;28;20452;-84
2022/12/23 13:10:29;;;;;;;2.70;2.17;;;;;;;11.51;100.00;154315.25;5047255;28;20445;-85
2022/12/23 13:13:31;;;;;;;5.90;4.07;;;;;;;11.58;100.00;154333.38;5046542;28;20603;-83
2022/12/23 13:16:24;;;;;;;5.13;3.27;;;;;;;11.59;100.00;154335.97;5055424;28;20530;-84
2022/12/23 13:19:20;;;;;;;2.50;1.87;;;;;;;11.56;100.00;154328.19;5051411;28;20448;-83
2022/12/23 13:22:08;;;;;;;2.30;2.10;;;;;;;11.57;100.00;154332.06;5051969;28;20523;-84